Time;durP1;ratioP1;P1;durP2;ratioP2;P2;SDS_P1;SDS_P2;PMS_P1;PMS_P2;Temp;Humidity;BMP_temperature;BMP_pressure;BME280_temperature;BME280_humidity;BME280_pressure;Samples;Min_cycle;Max_cycle;Signal;HPM_P1;HPM_P2
2021/07/10 00:00:07;;;;;;;12.52;10.00;;;19.00;99.90;;;;;;4988662;28;20032;-30
2021/07/10 00:02:33;;;;;;;13.05;10.40;;;19.00;99.90;;;;;;4988805;28;20082;-30
2021/07/10 00:04:58;;;;;;;12.00;9.95;;;19.00;99.90;;;;;;4988941;28;20510;-31
2021/07/10 00:07:24;;;;;;;11.75;9.77;;;19.00;99.90;;;;;;4989132;28;20458;-31
2021/07/10 00:09:50;;;;;;;12.23;9.23;;;19.00;99.90;;;;;;4988574;28;20038;-31
2021/07/10 00:12:15;;;;;;;13.40;10.00;;;19.00;99.90;;;;;;4989165;28;20022;-31
2021/07/10 00:14:41;;;;;;;10.82;9.70;;;19.00;99.90;;;;;;4992559;28;20381;-30
2021/07/10 00:17:07;;;;;;;14.18;10.73;;;19.00;99.90;;;;;;4991750;28;20474;-30
2021/07/10 00:19:32;;;;;;;12.18;10.30;;;19.10;99.90;;;;;;4992331;28;20092;-30
2021/07/10 00:21:58;;;;;;;12.57;10.35;;;19.10;99.90;;;;;;4991211;28;20036;-30
2021/07/10 00:24:23;;;;;;;11.73;10.35;;;19.10;99.90;;;;;;4992517;28;20106;-30
2021/07/10 00:26:49;;;;;;;12.48;10.00;;;19.10;99.90;;;;;;4991465;28;20486;-31
2021/07/10 00:29:16;;;;;;;13.05;9.95;;;19.10;99.90;;;;;;4991306;28;20077;-31
2021/07/10 00:31:42;;;;;;;11.85;9.90;;;19.10;99.90;;;;;;4991183;28;20057;-31
2021/07/10 00:34:07;;;;;;;11.75;9.98;;;19.10;99.90;;;;;;4991889;28;20058;-31
2021/07/10 00:36:33;;;;;;;12.40;9.68;;;19.00;99.90;;;;;;4991961;28;20605;-30
2021/07/10 00:38:59;;;;;;;15.02;10.85;;;19.10;99.90;;;;;;4991761;28;20027;-31
2021/07/10 00:41:27;;;;;;;13.90;10.38;;;19.00;99.90;;;;;;4991560;28;20033;-31
2021/07/10 00:43:53;;;;;;;12.98;10.55;;;19.00;99.90;;;;;;4992066;28;20041;-31
2021/07/10 00:46:20;;;;;;;13.30;10.82;;;19.00;99.90;;;;;;4990942;28;20014;-31
2021/07/10 00:48:47;;;;;;;14.05;10.95;;;19.00;99.90;;;;;;4992111;28;20038;-31
2021/07/10 00:51:13;;;;;;;13.45;10.45;;;19.00;99.90;;;;;;4992210;28;20018;-31
2021/07/10 00:53:38;;;;;;;13.20;10.20;;;19.00;99.90;;;;;;4991515;28;20029;-31
2021/07/10 00:56:05;;;;;;;16.58;10.43;;;19.00;99.90;;;;;;4991764;28;20044;-31
2021/07/10 00:58:32;;;;;;;12.48;10.43;;;18.90;99.90;;;;;;4991240;28;20034;-31
2021/07/10 01:00:58;;;;;;;13.00;10.40;;;18.90;99.90;;;;;;4991174;28;20035;-30
2021/07/10 01:03:25;;;;;;;14.60;10.35;;;18.90;99.90;;;;;;4991669;28;20022;-30
2021/07/10 01:05:50;;;;;;;11.52;10.32;;;19.00;99.90;;;;;;4991093;28;20100;-30
2021/07/10 01:08:16;;;;;;;11.60;9.63;;;19.00;99.90;;;;;;4991279;28;20054;-31
2021/07/10 01:10:41;;;;;;;12.85;10.70;;;19.10;99.90;;;;;;4991463;28;20065;-31
2021/07/10 01:13:09;;;;;;;12.88;10.20;;;19.10;99.90;;;;;;4990843;28;20058;-31
2021/07/10 01:15:34;;;;;;;12.40;9.70;;;19.10;99.90;;;;;;4991837;28;20406;-31
2021/07/10 01:18:00;;;;;;;13.77;10.05;;;19.10;99.90;;;;;;4990737;28;20484;-31
2021/07/10 01:20:28;;;;;;;11.43;9.75;;;19.10;99.90;;;;;;4990899;28;20030;-31
2021/07/10 01:22:56;;;;;;;14.98;10.30;;;19.10;99.90;;;;;;4990868;28;20127;-31
2021/07/10 01:25:23;;;;;;;12.52;10.27;;;19.00;99.90;;;;;;4991738;28;20363;-31
2021/07/10 01:27:49;;;;;;;13.35;10.80;;;19.10;99.90;;;;;;4990461;28;20085;-31
2021/07/10 01:30:20;;;;;;;13.70;10.85;;;19.10;99.90;;;;;;4980213;28;20695;-31
2021/07/10 01:32:50;;;;;;;12.80;10.35;;;19.10;99.90;;;;;;4990997;28;20460;-31
2021/07/10 01:35:16;;;;;;;12.38;10.30;;;19.10;99.90;;;;;;4990284;28;20034;-31
2021/07/10 01:37:43;;;;;;;14.07;10.27;;;19.10;99.90;;;;;;4990882;28;20045;-31
2021/07/10 01:40:11;;;;;;;14.02;10.60;;;19.00;99.90;;;;;;4987372;28;20429;-31
2021/07/10 01:42:36;;;;;;;11.18;9.90;;;19.00;99.90;;;;;;4989846;28;20493;-30
2021/07/10 01:45:03;;;;;;;12.63;10.07;;;19.00;99.90;;;;;;4990025;28;20037;-31
2021/07/10 01:47:28;;;;;;;12.75;10.18;;;18.90;99.90;;;;;;4991094;28;20037;-31
2021/07/10 01:49:54;;;;;;;12.60;10.00;;;18.80;99.90;;;;;;4989438;28;20027;-31
2021/07/10 01:52:20;;;;;;;13.40;11.07;;;18.80;99.90;;;;;;4990875;28;20785;-31
2021/07/10 01:54:45;;;;;;;13.18;11.02;;;18.80;99.90;;;;;;4989893;28;20018;-31
2021/07/10 01:57:11;;;;;;;13.90;10.70;;;18.70;99.90;;;;;;4990392;28;20030;-31
2021/07/10 01:59:38;;;;;;;14.90;11.43;;;18.70;99.90;;;;;;4990464;28;20093;-31
2021/07/10 02:02:04;;;;;;;13.05;10.80;;;18.60;99.90;;;;;;4989214;28;20041;-31
2021/07/10 02:04:30;;;;;;;14.75;11.15;;;18.60;99.90;;;;;;4991112;28;20007;-31
2021/07/10 02:06:55;;;;;;;13.55;11.15;;;18.60;99.90;;;;;;4989841;28;20477;-31
2021/07/10 02:09:21;;;;;;;12.68;10.32;;;18.50;99.90;;;;;;4989764;28;20018;-31
2021/07/10 02:11:49;;;;;;;14.75;11.25;;;18.50;99.90;;;;;;4990687;28;20086;-31
2021/07/10 02:14:19;;;;;;;14.40;12.40;;;18.50;99.90;;;;;;4989892;28;20026;-31
2021/07/10 02:16:46;;;;;;;12.82;10.88;;;18.40;99.90;;;;;;4990477;28;20037;-31
2021/07/10 02:19:12;;;;;;;14.23;11.15;;;18.40;99.90;;;;;;4989836;28;20019;-31
2021/07/10 02:21:39;;;;;;;14.60;11.10;;;18.30;99.90;;;;;;4990281;28;20485;-31
2021/07/10 02:24:06;;;;;;;14.13;10.00;;;18.30;99.90;;;;;;4989158;28;20025;-31
2021/07/10 02:26:32;;;;;;;12.60;10.50;;;18.30;99.90;;;;;;4990116;28;20057;-31
2021/07/10 02:28:58;;;;;;;13.38;10.18;;;18.30;99.90;;;;;;4989210;28;20023;-31
2021/07/10 02:31:23;;;;;;;13.90;11.30;;;18.20;99.90;;;;;;4989124;28;20029;-31
2021/07/10 02:33:49;;;;;;;14.45;12.40;;;18.10;99.90;;;;;;4990484;28;20058;-31
2021/07/10 02:36:15;;;;;;;15.15;11.68;;;18.10;99.90;;;;;;4989183;28;20025;-31
2021/07/10 02:38:40;;;;;;;14.52;11.73;;;18.10;99.90;;;;;;4989101;28;20109;-31
2021/07/10 02:41:06;;;;;;;16.02;11.73;;;18.10;99.90;;;;;;4989051;28;20038;-31
2021/07/10 02:43:31;;;;;;;14.73;11.45;;;18.10;99.90;;;;;;4989699;28;20076;-31
2021/07/10 02:45:57;;;;;;;14.15;11.60;;;18.10;99.90;;;;;;4989153;28;20026;-31
2021/07/10 02:48:23;;;;;;;14.07;11.63;;;18.10;99.90;;;;;;4989618;28;20546;-31
2021/07/10 02:50:48;;;;;;;14.55;11.70;;;18.10;99.90;;;;;;4989164;28;20030;-30
2021/07/10 02:53:14;;;;;;;14.48;11.52;;;18.10;99.90;;;;;;4989148;28;20033;-31
2021/07/10 02:55:40;;;;;;;16.33;12.50;;;18.10;99.90;;;;;;4989399;28;20042;-31
2021/07/10 02:58:05;;;;;;;15.57;11.57;;;18.00;99.90;;;;;;4989204;28;20036;-30
2021/07/10 03:00:32;;;;;;;13.27;11.50;;;18.00;99.90;;;;;;4990165;28;20069;-31
2021/07/10 03:02:58;;;;;;;14.65;11.75;;;18.00;99.90;;;;;;4988928;28;20065;-30
2021/07/10 03:05:24;;;;;;;14.68;11.25;;;18.00;99.90;;;;;;4988847;28;20049;-31
2021/07/10 03:07:50;;;;;;;15.38;11.30;;;17.90;99.90;;;;;;4989311;28;20109;-31
2021/07/10 03:10:20;;;;;;;14.50;11.13;;;17.90;99.90;;;;;;4988867;28;20140;-31
2021/07/10 03:12:46;;;;;;;15.13;11.32;;;17.90;99.90;;;;;;4989411;28;20046;-31
2021/07/10 03:15:15;;;;;;;12.77;11.05;;;17.90;99.90;;;;;;4989313;28;20124;-31
2021/07/10 03:17:41;;;;;;;11.65;10.43;;;17.90;99.90;;;;;;4989091;28;20019;-31
2021/07/10 03:20:08;;;;;;;14.43;11.13;;;17.80;99.90;;;;;;4988806;28;20513;-31
2021/07/10 03:22:33;;;;;;;13.05;10.63;;;17.80;99.90;;;;;;4988934;28;20069;-31
2021/07/10 03:25:01;;;;;;;13.07;11.52;;;17.80;99.90;;;;;;4988993;28;20057;-31
2021/07/10 03:27:26;;;;;;;15.50;11.70;;;17.80;99.90;;;;;;4989594;28;20026;-31
2021/07/10 03:29:52;;;;;;;13.95;11.15;;;17.70;99.90;;;;;;4989570;28;20351;-31
2021/07/10 03:32:17;;;;;;;15.05;11.10;;;17.70;99.90;;;;;;4989012;28;20025;-31
2021/07/10 03:34:43;;;;;;;15.80;12.00;;;17.70;99.90;;;;;;4988559;28;20053;-31
2021/07/10 03:37:08;;;;;;;16.48;11.77;;;17.70;99.90;;;;;;4988820;28;20021;-31
2021/07/10 03:39:34;;;;;;;14.45;10.95;;;17.70;99.90;;;;;;4989269;28;20109;-31
2021/07/10 03:42:00;;;;;;;15.27;11.45;;;17.70;99.90;;;;;;4988242;28;20046;-31
2021/07/10 03:44:28;;;;;;;16.35;11.32;;;17.70;99.90;;;;;;4989179;28;20023;-31
2021/07/10 03:46:54;;;;;;;15.15;12.40;;;17.70;99.90;;;;;;4988658;28;20027;-31
2021/07/10 03:49:19;;;;;;;14.00;11.40;;;17.70;99.90;;;;;;4990722;28;20026;-31
2021/07/10 03:51:45;;;;;;;18.10;12.60;;;17.70;99.90;;;;;;4992735;28;20045;-31
2021/07/10 03:54:10;;;;;;;15.73;11.70;;;17.70;99.90;;;;;;4992673;28;20463;-31
2021/07/10 03:56:36;;;;;;;16.40;12.48;;;17.80;99.90;;;;;;4992622;28;20076;-31
2021/07/10 03:59:02;;;;;;;16.05;12.65;;;17.80;99.90;;;;;;4992275;28;20096;-31
2021/07/10 04:01:27;;;;;;;15.35;12.48;;;17.90;99.90;;;;;;4992250;28;20038;-31
2021/07/10 04:03:53;;;;;;;14.40;12.65;;;17.80;99.90;;;;;;4993023;28;20034;-30
2021/07/10 04:06:21;;;;;;;16.50;13.32;;;17.80;99.90;;;;;;4992527;28;20535;-30
2021/07/10 04:08:47;;;;;;;16.80;13.55;;;17.90;99.90;;;;;;4991671;28;20015;-30
2021/07/10 04:11:12;;;;;;;14.98;12.35;;;17.90;99.90;;;;;;4992744;28;20069;-31
2021/07/10 04:13:38;;;;;;;16.35;12.77;;;18.00;99.90;;;;;;4992761;28;20019;-30
2021/07/10 04:16:04;;;;;;;14.88;12.32;;;18.00;99.90;;;;;;4991488;28;20037;-31
2021/07/10 04:18:29;;;;;;;15.98;12.00;;;18.10;99.90;;;;;;4992495;28;20022;-31
2021/07/10 04:20:55;;;;;;;17.88;13.18;;;18.20;99.90;;;;;;4991825;28;20030;-30
2021/07/10 04:23:23;;;;;;;15.60;12.30;;;18.20;99.90;;;;;;4991729;28;20030;-30
2021/07/10 04:25:48;;;;;;;16.65;12.57;;;18.20;99.90;;;;;;4992259;28;20049;-30
2021/07/10 04:28:14;;;;;;;16.42;13.15;;;18.20;99.90;;;;;;4992140;28;20034;-30
2021/07/10 04:30:40;;;;;;;16.63;13.27;;;18.20;99.90;;;;;;4991226;28;20065;-30
2021/07/10 04:33:05;;;;;;;18.27;13.25;;;18.20;99.90;;;;;;4991895;28;20121;-30
2021/07/10 04:35:31;;;;;;;16.33;13.20;;;18.20;99.90;;;;;;4992340;28;20034;-31
2021/07/10 04:37:56;;;;;;;18.92;13.90;;;18.30;99.90;;;;;;4991821;28;20026;-31
2021/07/10 04:40:22;;;;;;;15.45;12.32;;;18.30;99.90;;;;;;4991787;28;20026;-31
2021/07/10 04:42:48;;;;;;;16.98;12.75;;;18.30;99.90;;;;;;4992070;28;20066;-30
2021/07/10 04:45:14;;;;;;;16.75;12.98;;;18.30;99.90;;;;;;4990897;28;20437;-30
2021/07/10 04:47:40;;;;;;;16.25;13.00;;;18.30;99.90;;;;;;4992184;28;20033;-30
2021/07/10 04:50:07;;;;;;;17.60;13.30;;;18.30;99.90;;;;;;4991882;28;20023;-31
2021/07/10 04:52:33;;;;;;;16.42;12.98;;;18.30;99.90;;;;;;4992182;28;20077;-31
2021/07/10 04:54:58;;;;;;;15.43;12.13;;;18.30;99.90;;;;;;4991508;28;20413;-31
2021/07/10 04:57:24;;;;;;;17.50;12.65;;;18.30;99.90;;;;;;4992289;28;20023;-31
2021/07/10 04:59:49;;;;;;;15.23;12.10;;;18.40;99.90;;;;;;4991176;28;20126;-31
2021/07/10 05:02:15;;;;;;;14.85;12.05;;;18.40;99.90;;;;;;4991216;28;20299;-31
2021/07/10 05:04:40;;;;;;;15.25;12.80;;;18.40;99.90;;;;;;4990913;28;20026;-31
2021/07/10 05:07:06;;;;;;;17.10;12.32;;;18.50;99.90;;;;;;4991644;28;20469;-31
2021/07/10 05:09:31;;;;;;;16.50;12.43;;;18.50;99.90;;;;;;4992225;28;20470;-31
2021/07/10 05:11:57;;;;;;;16.15;12.70;;;18.50;99.90;;;;;;4990615;28;20085;-31
2021/07/10 05:14:23;;;;;;;17.38;12.45;;;18.50;99.90;;;;;;4991795;28;20485;-31
2021/07/10 05:16:49;;;;;;;18.25;12.93;;;18.50;99.90;;;;;;4991518;28;20033;-31
2021/07/10 05:19:15;;;;;;;16.45;13.00;;;18.40;99.90;;;;;;4990766;28;20019;-31
2021/07/10 05:21:41;;;;;;;16.77;13.55;;;18.40;99.90;;;;;;4991268;28;20046;-31
2021/07/10 05:24:09;;;;;;;16.52;13.10;;;18.40;99.90;;;;;;4991892;28;20072;-30
2021/07/10 05:26:35;;;;;;;18.35;14.43;;;18.40;99.90;;;;;;4990695;28;20018;-31
2021/07/10 05:29:00;;;;;;;18.42;14.05;;;18.30;99.90;;;;;;4990966;28;20462;-31
2021/07/10 05:31:26;;;;;;;17.50;13.45;;;18.30;99.90;;;;;;4991718;28;20021;-30
2021/07/10 05:33:52;;;;;;;20.05;14.57;;;18.30;99.90;;;;;;4990144;28;20108;-31
2021/07/10 05:36:17;;;;;;;17.35;14.38;;;18.40;99.90;;;;;;4991199;28;20022;-31
2021/07/10 05:38:43;;;;;;;18.50;14.48;;;18.40;99.90;;;;;;4991106;28;20037;-31
2021/07/10 05:41:19;;;;;;;16.67;14.10;;;18.40;99.90;;;;;;4990194;28;20031;-30
2021/07/10 05:43:44;;;;;;;19.77;15.13;;;18.50;99.90;;;;;;4979086;28;20030;-31
2021/07/10 05:46:11;;;;;;;20.13;15.57;;;18.50;99.90;;;;;;4990459;28;20122;-31
2021/07/10 05:48:36;;;;;;;20.60;15.75;;;18.50;99.90;;;;;;4990407;28;20535;-31
2021/07/10 05:51:02;;;;;;;19.35;15.80;;;18.50;99.90;;;;;;4990354;28;20117;-31
2021/07/10 05:53:27;;;;;;;21.40;16.88;;;18.60;99.90;;;;;;4991119;28;20334;-31
2021/07/10 05:55:53;;;;;;;19.52;15.98;;;18.70;99.90;;;;;;4990378;28;20022;-31
2021/07/10 05:58:19;;;;;;;18.85;16.65;;;18.80;99.90;;;;;;4989981;28;20026;-32
2021/07/10 06:00:44;;;;;;;21.40;17.67;;;18.80;99.90;;;;;;4990554;28;20129;-31
2021/07/10 06:03:10;;;;;;;21.58;19.20;;;18.90;99.90;;;;;;4990079;28;20085;-31
2021/07/10 06:05:37;;;;;;;23.80;19.15;;;18.90;99.90;;;;;;4990999;28;20081;-31
2021/07/10 06:08:03;;;;;;;26.63;21.17;;;19.10;99.90;;;;;;4989730;28;20054;-30
2021/07/10 06:10:29;;;;;;;25.90;22.27;;;19.20;99.90;;;;;;4990005;28;20054;-31
2021/07/10 06:12:54;;;;;;;26.83;22.23;;;19.20;99.90;;;;;;4989952;28;20018;-31
2021/07/10 06:15:20;;;;;;;27.45;23.27;;;19.30;99.90;;;;;;4990287;28;20414;-31
2021/07/10 06:17:46;;;;;;;27.88;21.95;;;19.40;99.90;;;;;;4990321;28;20036;-32
2021/07/10 06:20:14;;;;;;;28.95;23.60;;;19.40;99.90;;;;;;4990952;28;20084;-31
2021/07/10 06:22:42;;;;;;;32.28;26.10;;;19.50;99.90;;;;;;4989204;28;20488;-31
2021/07/10 06:25:09;;;;;;;39.35;27.70;;;19.60;99.90;;;;;;4979878;28;20033;-31
2021/07/10 06:27:34;;;;;;;33.50;26.35;;;19.50;99.90;;;;;;4990620;28;20034;-31
2021/07/10 06:30:00;;;;;;;30.35;23.23;;;19.60;99.90;;;;;;4989350;28;20030;-31
2021/07/10 06:32:26;;;;;;;28.35;22.20;;;19.60;99.90;;;;;;4991078;28;20033;-30
2021/07/10 06:34:57;;;;;;;23.00;19.45;;;19.70;99.90;;;;;;4989654;28;20042;-31
2021/07/10 06:37:23;;;;;;;29.10;23.38;;;19.80;99.90;;;;;;4989912;28;20034;-31
2021/07/10 06:39:48;;;;;;;28.67;22.42;;;19.80;99.90;;;;;;4989956;28;20109;-31
2021/07/10 06:42:19;;;;;;;30.60;22.38;;;19.90;99.90;;;;;;4988804;28;20137;-31
2021/07/10 06:44:45;;;;;;;28.83;21.45;;;20.00;99.90;;;;;;4989172;28;20109;-31
2021/07/10 06:47:11;;;;;;;24.83;20.05;;;20.10;99.90;;;;;;4990318;28;20129;-31
2021/07/10 06:49:36;;;;;;;27.55;22.40;;;20.10;99.90;;;;;;4990021;28;20029;-31
2021/07/10 06:52:02;;;;;;;26.55;21.83;;;20.20;99.90;;;;;;4989592;28;20524;-31
2021/07/10 06:54:28;;;;;;;26.80;21.48;;;20.30;99.90;;;;;;4989994;28;20053;-31
2021/07/10 06:56:59;;;;;;;22.85;17.38;;;20.30;99.90;;;;;;4989244;28;20026;-31
2021/07/10 06:59:28;;;;;;;26.20;20.37;;;20.40;99.90;;;;;;4985607;28;20059;-31
2021/07/10 07:01:53;;;;;;;25.70;19.45;;;20.50;99.90;;;;;;4988160;28;20388;-31
2021/07/10 07:04:19;;;;;;;23.55;19.17;;;20.60;99.90;;;;;;4988003;28;20097;-32
2021/07/10 07:06:45;;;;;;;22.20;19.30;;;20.60;99.90;;;;;;4988921;28;20576;-31
2021/07/10 07:09:10;;;;;;;24.48;19.77;;;20.70;99.90;;;;;;4987796;28;20044;-31
2021/07/10 07:11:36;;;;;;;23.77;19.73;;;20.80;99.90;;;;;;4987728;28;20058;-31
2021/07/10 07:14:02;;;;;;;20.75;17.20;;;20.80;99.90;;;;;;4988130;28;20034;-31
2021/07/10 07:16:27;;;;;;;24.02;19.42;;;20.80;99.90;;;;;;4988708;28;20489;-32
2021/07/10 07:18:53;;;;;;;18.90;16.05;;;20.90;99.90;;;;;;4987915;28;20038;-33
2021/07/10 07:21:19;;;;;;;19.52;15.55;;;20.90;99.90;;;;;;4989082;28;20470;-34
2021/07/10 07:23:44;;;;;;;18.85;15.23;;;20.90;99.90;;;;;;4991713;28;20522;-33
2021/07/10 07:26:10;;;;;;;17.77;14.27;;;21.00;99.90;;;;;;4991934;28;20034;-32
2021/07/10 07:28:38;;;;;;;16.42;13.63;;;21.00;99.90;;;;;;4992790;28;20053;-33
2021/07/10 07:31:05;;;;;;;19.77;14.10;;;21.10;99.90;;;;;;4991353;28;20108;-32
2021/07/10 07:33:31;;;;;;;18.17;14.40;;;21.10;99.90;;;;;;4991797;28;20550;-33
2021/07/10 07:35:57;;;;;;;16.90;14.10;;;21.10;99.90;;;;;;4991204;28;20120;-33
2021/07/10 07:38:23;;;;;;;16.60;13.82;;;21.20;99.90;;;;;;4992910;28;20497;-33
2021/07/10 07:40:49;;;;;;;15.27;13.40;;;21.20;99.90;;;;;;4991230;28;20030;-33
2021/07/10 07:43:14;;;;;;;15.88;13.32;;;21.30;99.80;;;;;;4993274;28;20033;-33
2021/07/10 07:45:40;;;;;;;17.67;14.10;;;21.40;99.70;;;;;;4991992;28;20029;-33
2021/07/10 07:48:06;;;;;;;16.92;13.95;;;21.50;99.50;;;;;;4991022;28;20445;-33
2021/07/10 07:50:32;;;;;;;16.88;14.60;;;21.60;99.40;;;;;;4991799;28;20403;-33
2021/07/10 07:52:58;;;;;;;16.05;12.85;;;21.70;99.30;;;;;;4992433;28;20027;-32
2021/07/10 07:55:23;;;;;;;16.65;13.63;;;21.70;99.30;;;;;;4991072;28;20050;-33
2021/07/10 07:57:49;;;;;;;15.70;13.63;;;21.70;99.10;;;;;;4992455;28;20454;-30
2021/07/10 08:00:19;;;;;;;18.48;14.07;;;21.70;99.10;;;;;;4992940;28;20058;-33
2021/07/10 08:02:46;;;;;;;19.77;14.82;;;21.70;99.10;;;;;;4991827;28;20363;-31
2021/07/10 08:05:12;;;;;;;16.77;13.32;;;21.70;99.10;;;;;;4992369;28;20096;-33
2021/07/10 08:07:38;;;;;;;17.15;13.48;;;21.80;99.10;;;;;;5002516;28;20018;-31
2021/07/10 08:10:05;;;;;;;16.00;13.18;;;21.90;99.00;;;;;;5002057;28;20033;-31
2021/07/10 08:12:32;;;;;;;20.73;15.10;;;22.00;98.90;;;;;;4998075;28;20500;-31
2021/07/10 08:14:58;;;;;;;17.52;14.07;;;22.10;98.70;;;;;;5003128;28;20022;-32
2021/07/10 08:17:24;;;;;;;17.02;13.10;;;22.20;98.60;;;;;;4999127;28;20041;-32
2021/07/10 08:19:52;;;;;;;16.00;12.82;;;22.30;98.50;;;;;;4992793;28;20030;-31
2021/07/10 08:22:17;;;;;;;14.80;12.30;;;22.30;98.40;;;;;;4991470;28;20034;-31
2021/07/10 08:24:43;;;;;;;16.45;12.55;;;22.30;98.30;;;;;;4992204;28;20025;-33
2021/07/10 08:27:09;;;;;;;15.57;12.73;;;22.30;98.20;;;;;;4992461;28;20057;-31
2021/07/10 08:29:36;;;;;;;18.85;13.25;;;22.30;98.10;;;;;;4992606;28;20045;-31
2021/07/10 08:32:02;;;;;;;15.48;12.60;;;22.30;98.10;;;;;;4991800;28;20470;-31
2021/07/10 08:34:27;;;;;;;17.13;11.73;;;22.40;98.10;;;;;;4991109;28;20508;-33
2021/07/10 08:36:53;;;;;;;14.07;11.13;;;22.40;98.00;;;;;;4990515;28;20041;-32
2021/07/10 08:39:22;;;;;;;16.40;12.80;;;22.40;98.00;;;;;;4987127;28;20022;-33
2021/07/10 08:41:48;;;;;;;17.15;12.90;;;22.50;97.80;;;;;;4991248;28;20493;-32
2021/07/10 08:44:14;;;;;;;14.60;12.13;;;22.50;97.80;;;;;;4991579;28;20109;-33
2021/07/10 08:46:40;;;;;;;15.18;12.25;;;22.60;97.80;;;;;;4991723;28;20466;-32
2021/07/10 08:49:07;;;;;;;13.20;11.18;;;22.50;97.70;;;;;;4989958;28;20025;-33
2021/07/10 08:51:34;;;;;;;13.43;10.30;;;22.50;97.70;;;;;;4989748;28;20024;-32
2021/07/10 08:54:01;;;;;;;12.50;9.52;;;22.50;97.60;;;;;;4991025;28;20021;-33
2021/07/10 08:56:26;;;;;;;11.02;8.13;;;22.40;97.80;;;;;;4991502;28;20054;-33
2021/07/10 08:58:52;;;;;;;11.27;8.68;;;22.30;97.50;;;;;;4990593;28;20059;-32
2021/07/10 09:01:17;;;;;;;10.90;7.97;;;22.30;97.50;;;;;;4989971;28;20032;-33
2021/07/10 09:03:43;;;;;;;9.82;8.43;;;22.30;97.50;;;;;;4995091;28;20466;-33
2021/07/10 09:06:09;;;;;;;8.05;6.97;;;22.30;97.40;;;;;;4990562;28;20034;-32
2021/07/10 09:08:35;;;;;;;9.40;6.93;;;22.40;97.40;;;;;;4991706;28;20564;-33
2021/07/10 09:11:09;;;;;;;7.68;6.60;;;22.30;97.20;;;;;;4990124;28;20046;-33
2021/07/10 09:13:49;;;;;;;6.80;6.07;;;22.40;97.20;;;;;;4991136;28;20023;-33
2021/07/10 09:16:18;;;;;;;6.82;6.07;;;22.40;97.10;;;;;;4991522;28;20022;-33
2021/07/10 09:18:56;;;;;;;5.88;5.13;;;22.50;97.00;;;;;;4989147;28;20133;-33
2021/07/10 09:21:44;;;;;;;6.88;6.15;;;22.60;96.70;;;;;;4989926;28;20042;-33
2021/07/10 09:24:14;;;;;;;7.30;6.18;;;22.70;96.40;;;;;;4989696;28;20019;-32
2021/07/10 09:26:44;;;;;;;6.03;5.43;;;22.70;96.30;;;;;;4988748;28;20058;-32
2021/07/10 09:29:35;;;;;;;6.47;5.75;;;22.80;96.20;;;;;;4990031;28;20097;-33
2021/07/10 09:32:07;;;;;;;6.07;5.18;;;22.90;95.90;;;;;;4987393;28;20022;-33
2021/07/10 09:34:42;;;;;;;5.35;4.85;;;23.10;95.90;;;;;;4989434;28;20026;-33
2021/07/10 09:37:13;;;;;;;7.07;6.28;;;23.10;95.60;;;;;;4989242;28;20019;-33
2021/07/10 09:39:44;;;;;;;5.28;4.78;;;23.20;95.20;;;;;;4986976;28;20033;-33
2021/07/10 09:42:14;;;;;;;5.18;4.53;;;23.20;94.90;;;;;;4989026;28;20069;-33
2021/07/10 09:44:43;;;;;;;5.75;4.38;;;23.30;94.80;;;;;;4988977;28;20077;-33
2021/07/10 09:47:08;;;;;;;6.43;4.93;;;23.30;94.40;;;;;;4989890;28;20022;-33
2021/07/10 09:49:34;;;;;;;6.68;4.68;;;23.40;94.30;;;;;;4990699;28;20037;-33
2021/07/10 09:52:03;;;;;;;5.72;4.45;;;23.50;94.30;;;;;;4979434;28;20029;-33
2021/07/10 09:54:34;;;;;;;5.00;4.47;;;23.60;94.20;;;;;;4990733;28;20164;-33
2021/07/10 09:57:10;;;;;;;6.15;5.05;;;23.60;94.00;;;;;;4990463;28;20034;-33
2021/07/10 09:59:45;;;;;;;7.25;5.43;;;23.60;93.90;;;;;;4991349;28;20120;-33
2021/07/10 10:02:14;;;;;;;5.40;4.35;;;23.60;93.60;;;;;;4989430;28;20068;-33
2021/07/10 10:04:40;;;;;;;5.00;4.45;;;23.60;93.50;;;;;;4990512;28;20026;-32
2021/07/10 10:07:18;;;;;;;4.80;4.30;;;23.60;93.50;;;;;;4988498;28;20035;-33
2021/07/10 10:09:44;;;;;;;4.97;4.18;;;23.70;93.40;;;;;;4990677;28;20034;-33
2021/07/10 10:12:15;;;;;;;5.15;4.65;;;23.80;93.30;;;;;;4990455;28;20057;-33
2021/07/10 10:14:58;;;;;;;6.65;4.80;;;23.80;93.20;;;;;;4989953;28;20015;-33
2021/07/10 10:17:25;;;;;;;6.78;5.18;;;23.80;93.00;;;;;;4990650;28;20019;-33
2021/07/10 10:19:51;;;;;;;4.50;4.07;;;23.80;92.80;;;;;;4990927;28;20026;-33
2021/07/10 10:22:19;;;;;;;5.45;4.88;;;23.80;92.80;;;;;;4989255;28;20042;-33
2021/07/10 10:24:51;;;;;;;5.20;4.10;;;23.80;92.50;;;;;;4990739;28;20033;-33
2021/07/10 10:27:18;;;;;;;4.50;3.97;;;23.80;92.30;;;;;;4989192;28;20382;-33
2021/07/10 10:29:45;;;;;;;7.50;4.18;;;23.80;92.30;;;;;;4989935;28;20046;-33
2021/07/10 10:32:12;;;;;;;4.60;4.20;;;23.80;91.90;;;;;;4990038;28;20037;-33
2021/07/10 10:34:42;;;;;;;5.32;4.20;;;23.80;92.10;;;;;;4990437;28;20477;-34
2021/07/10 10:37:10;;;;;;;6.22;5.22;;;23.90;92.00;;;;;;4989569;28;20085;-34
2021/07/10 10:39:37;;;;;;;7.20;5.35;;;24.00;91.60;;;;;;4990104;28;20023;-33
2021/07/10 10:42:09;;;;;;;5.70;5.10;;;24.00;91.70;;;;;;4989392;28;20046;-33
2021/07/10 10:44:40;;;;;;;7.43;6.18;;;24.10;92.00;;;;;;4990485;28;20029;-33
2021/07/10 10:47:09;;;;;;;7.32;6.40;;;24.10;91.60;;;;;;4990028;28;20105;-33
2021/07/10 10:49:36;;;;;;;6.90;6.05;;;24.00;91.60;;;;;;4989708;28;20041;-33
2021/07/10 10:52:18;;;;;;;6.22;5.63;;;23.90;91.50;;;;;;4989154;28;20077;-33
2021/07/10 10:54:50;;;;;;;9.02;6.55;;;23.80;91.70;;;;;;4990073;28;20081;-33
2021/07/10 10:57:15;;;;;;;7.10;6.40;;;23.80;92.00;;;;;;4985371;28;20026;-33
2021/07/10 10:59:43;;;;;;;8.35;7.32;;;23.80;91.70;;;;;;4989467;28;20025;-33
2021/07/10 11:02:30;;;;;;;9.70;7.57;;;23.80;91.80;;;;;;4989715;28;20026;-33
2021/07/10 11:04:56;;;;;;;8.93;6.93;;;23.80;91.70;;;;;;4988719;28;20080;-32
2021/07/10 11:07:33;;;;;;;8.55;6.63;;;23.80;91.80;;;;;;4985120;28;20019;-33
2021/07/10 11:10:10;;;;;;;7.32;6.20;;;23.90;91.90;;;;;;4981889;28;20026;-33
2021/07/10 11:12:58;;;;;;;7.78;6.55;;;24.00;92.00;;;;;;4984537;28;20049;-32
2021/07/10 11:15:30;;;;;;;7.65;6.00;;;24.20;91.90;;;;;;4989440;28;20067;-33
2021/07/10 11:17:58;;;;;;;8.40;7.30;;;24.30;91.80;;;;;;4988391;28;20030;-33
2021/07/10 11:20:42;;;;;;;7.57;5.95;;;24.40;91.60;;;;;;4989748;28;20022;-33
2021/07/10 11:23:28;;;;;;;7.20;6.25;;;24.50;91.60;;;;;;4979093;28;20038;-31
2021/07/10 11:26:03;;;;;;;6.88;6.15;;;24.50;91.40;;;;;;4988935;28;20109;-33
2021/07/10 11:28:33;;;;;;;9.27;7.50;;;24.60;91.40;;;;;;4989438;28;20505;-32
2021/07/10 11:31:03;;;;;;;8.75;6.97;;;24.60;91.30;;;;;;4989541;28;20030;-34
2021/07/10 11:34:01;;;;;;;7.75;6.50;;;24.60;91.20;;;;;;4989145;28;20011;-32
2021/07/10 11:36:43;;;;;;;7.13;6.38;;;24.50;91.20;;;;;;4989525;28;20081;-32
2021/07/10 11:39:23;;;;;;;6.85;5.97;;;24.40;91.20;;;;;;4989338;28;20053;-32
2021/07/10 11:41:50;;;;;;;9.18;7.13;;;24.40;91.30;;;;;;4988947;28;20042;-32
2021/07/10 11:44:19;;;;;;;8.65;7.00;;;24.30;91.40;;;;;;4989150;28;20482;-32
2021/07/10 11:47:00;;;;;;;9.68;6.97;;;24.20;91.40;;;;;;4988519;28;20469;-32
2021/07/10 11:49:40;;;;;;;8.35;6.47;;;24.10;91.40;;;;;;4989750;28;20034;-33
2021/07/10 11:52:17;;;;;;;8.40;6.70;;;24.10;91.50;;;;;;4988996;28;20034;-40
2021/07/10 11:55:02;;;;;;;10.77;8.05;;;24.10;91.60;;;;;;4988444;28;20540;-32
2021/07/10 11:57:39;;;;;;;7.63;6.90;;;24.10;91.70;;;;;;4989783;28;20025;-32
2021/07/10 12:00:08;;;;;;;7.45;6.47;;;24.00;91.40;;;;;;4988183;28;20046;-32
2021/07/10 12:02:33;;;;;;;9.40;7.35;;;24.00;91.40;;;;;;4987037;28;20351;-31
2021/07/10 12:05:15;;;;;;;7.55;6.50;;;24.00;91.30;;;;;;4987492;28;20105;-35
2021/07/10 12:07:45;;;;;;;6.85;6.15;;;24.10;91.20;;;;;;4988014;28;20030;-34
2021/07/10 12:10:38;;;;;;;6.22;5.53;;;24.10;91.10;;;;;;4990880;28;20032;-34
2021/07/10 12:13:19;;;;;;;5.60;4.95;;;24.30;90.90;;;;;;4970003;28;20055;-34
2021/07/10 12:15:54;;;;;;;5.47;4.95;;;24.40;90.80;;;;;;4987612;28;20037;-35
2021/07/10 12:18:22;;;;;;;5.00;4.50;;;24.60;90.80;;;;;;4973086;28;20047;-34
2021/07/10 12:20:55;;;;;;;5.45;4.95;;;24.70;90.60;;;;;;4986702;28;20102;-34
2021/07/10 12:23:25;;;;;;;6.03;4.90;;;24.90;90.50;;;;;;4993067;28;20092;-34
2021/07/10 12:25:55;;;;;;;6.07;5.38;;;24.90;90.30;;;;;;4992367;28;20018;-34
2021/07/10 12:28:36;;;;;;;7.57;5.78;;;24.90;90.30;;;;;;4991782;28;20080;-34
2021/07/10 12:31:15;;;;;;;4.30;3.90;;;24.90;90.00;;;;;;4992227;28;20073;-34
2021/07/10 12:33:57;;;;;;;4.70;4.30;;;24.80;89.90;;;;;;4992802;28;20030;-34
2021/07/10 12:36:43;;;;;;;4.60;4.10;;;24.80;89.90;;;;;;4991881;28;20493;-34